createdAt,value
2023-05-14T00:00:50.517Z,20.12
2023-05-14T00:03:16.330Z,20.12
2023-05-14T00:05:42.108Z,20.13
2023-05-14T00:08:07.773Z,20.13
2023-05-14T00:10:33.459Z,20.12
2023-05-14T00:12:59.109Z,20.12
2023-05-14T00:15:24.760Z,20.13
2023-05-14T00:17:50.413Z,20.13
2023-05-14T00:20:16.140Z,20.12
2023-05-14T00:22:41.825Z,20.12
2023-05-14T00:25:07.940Z,20.12
2023-05-14T00:27:34.165Z,20.12
2023-05-14T00:29:59.829Z,20.12
2023-05-14T00:32:25.705Z,20.12
2023-05-14T00:34:51.371Z,20.13
2023-05-14T00:37:17.001Z,20.14
2023-05-14T00:39:42.669Z,20.13
2023-05-14T00:42:08.303Z,20.13
2023-05-14T00:44:34.840Z,20.13
2023-05-14T00:47:00.852Z,20.12
2023-05-14T00:49:27.752Z,20.12
2023-05-14T00:51:53.758Z,20.13
2023-05-14T00:54:20.010Z,20.12
2023-05-14T00:56:46.095Z,20.12
2023-05-14T00:59:12.343Z,20.12
2023-05-14T01:01:38.362Z,20.13
2023-05-14T01:04:05.269Z,20.13
2023-05-14T01:06:58.817Z,20.13
2023-05-14T01:12:37.549Z,20.13
2023-05-14T01:17:45.970Z,20.13
2023-05-14T01:20:11.712Z,20.12
2023-05-14T01:22:37.435Z,20.13
2023-05-14T01:25:04.735Z,20.12
2023-05-14T01:27:38.417Z,20.13
2023-05-14T01:30:14.331Z,20.12
2023-05-14T01:32:40.643Z,20.13
2023-05-14T01:35:07.498Z,20.12
2023-05-14T01:37:33.970Z,20.14
2023-05-14T01:39:59.890Z,20.12
2023-05-14T01:42:25.737Z,20.12
2023-05-14T01:44:51.457Z,20.12
2023-05-14T01:47:17.115Z,20.12
2023-05-14T01:49:42.769Z,20.12
2023-05-14T01:52:08.438Z,20.12
2023-05-14T01:54:34.126Z,20.11
2023-05-14T01:56:59.782Z,20.12
2023-05-14T01:59:25.492Z,20.12
2023-05-14T02:01:51.232Z,20.12
2023-05-14T02:04:17.303Z,20.13
2023-05-14T02:06:42.976Z,20.12
2023-05-14T02:09:08.646Z,20.13
2023-05-14T02:11:34.300Z,20.12
2023-05-14T02:13:59.938Z,20.12
2023-05-14T02:16:25.639Z,20.13
2023-05-14T02:18:51.488Z,20.13
2023-05-14T02:21:17.205Z,20.12
2023-05-14T02:23:43.421Z,20.12
2023-05-14T02:26:09.867Z,20.12
2023-05-14T02:28:35.541Z,20.12
2023-05-14T02:31:01.243Z,20.12
2023-05-14T02:33:27.379Z,20.12
2023-05-14T02:35:53.554Z,20.12
2023-05-14T02:38:19.678Z,20.12
2023-05-14T02:40:45.327Z,20.12
2023-05-14T02:43:11.025Z,20.12
2023-05-14T02:45:36.695Z,20.12
2023-05-14T02:48:02.460Z,20.12
2023-05-14T02:50:28.170Z,20.12
2023-05-14T02:52:53.807Z,20.12
2023-05-14T02:55:19.493Z,20.12
2023-05-14T02:57:45.888Z,20.12
2023-05-14T03:00:11.913Z,20.12
2023-05-14T03:02:38.107Z,20.12
2023-05-14T03:05:04.674Z,20.12
2023-05-14T03:07:30.314Z,20.12
2023-05-14T03:09:55.991Z,20.11
2023-05-14T03:12:21.725Z,20.12
2023-05-14T03:14:47.361Z,20.12
2023-05-14T03:17:13.081Z,20.12
2023-05-14T03:19:38.737Z,20.13
2023-05-14T03:22:04.464Z,20.12
2023-05-14T03:24:30.700Z,20.12
2023-05-14T03:26:56.339Z,20.12
2023-05-14T03:29:21.994Z,20.12
2023-05-14T03:31:47.648Z,20.12
2023-05-14T03:34:13.344Z,20.12
2023-05-14T03:36:39.002Z,20.12
2023-05-14T03:39:06.224Z,20.12
2023-05-14T03:41:32.310Z,20.11
2023-05-14T03:43:57.939Z,20.12
2023-05-14T03:46:23.621Z,20.11
2023-05-14T03:48:49.337Z,20.12
2023-05-14T03:51:15.120Z,20.12
2023-05-14T03:53:41.110Z,20.12
2023-05-14T03:56:06.778Z,20.12
2023-05-14T03:58:32.444Z,20.12
2023-05-14T04:00:58.102Z,20.11
2023-05-14T04:03:23.859Z,20.11
2023-05-14T04:05:50.320Z,20.12
2023-05-14T04:08:16.036Z,20.11
2023-05-14T04:10:42.249Z,20.11
2023-05-14T04:13:07.961Z,20.11
2023-05-14T04:15:34.948Z,20.11
2023-05-14T04:18:00.998Z,20.12
2023-05-14T04:20:26.722Z,20.11
2023-05-14T04:22:53.208Z,20.11
2023-05-14T04:25:19.162Z,20.12
2023-05-14T04:27:45.030Z,20.11
2023-05-14T04:30:10.990Z,20.12
2023-05-14T04:32:37.196Z,20.11
2023-05-14T04:35:03.629Z,20.10
2023-05-14T04:37:30.112Z,20.11
2023-05-14T04:39:55.845Z,20.12
2023-05-14T04:42:21.601Z,20.12
2023-05-14T04:44:47.750Z,20.11
2023-05-14T04:47:13.502Z,20.11
2023-05-14T04:49:39.197Z,20.11
2023-05-14T04:52:05.707Z,20.11
2023-05-14T04:54:31.485Z,20.12
2023-05-14T04:56:57.154Z,20.11
2023-05-14T04:59:22.807Z,20.12
2023-05-14T05:01:48.649Z,20.12
2023-05-14T05:04:14.390Z,20.12
2023-05-14T05:06:40.104Z,20.12
2023-05-14T05:09:05.809Z,20.13
2023-05-14T05:11:31.473Z,20.13
2023-05-14T05:13:57.125Z,20.13
2023-05-14T05:16:22.832Z,20.12
2023-05-14T05:18:48.590Z,20.12
2023-05-14T05:21:14.225Z,20.11
2023-05-14T05:23:39.876Z,20.12
2023-05-14T05:26:05.515Z,20.12
2023-05-14T05:28:31.242Z,20.11
2023-05-14T05:30:56.947Z,20.11
2023-05-14T05:33:22.685Z,20.11
2023-05-14T05:35:49.304Z,20.10
2023-05-14T05:38:17.363Z,20.11
2023-05-14T05:40:43.250Z,20.11
2023-05-14T05:43:08.890Z,20.10
2023-05-14T05:45:34.533Z,20.12
2023-05-14T05:48:00.232Z,20.11
2023-05-14T05:50:26.030Z,20.11
2023-05-14T05:52:52.017Z,20.11
2023-05-14T05:55:18.342Z,20.11
2023-05-14T05:57:44.003Z,20.10
2023-05-14T06:00:12.977Z,20.11
2023-05-14T06:02:40.810Z,20.11
2023-05-14T06:05:07.710Z,20.13
2023-05-14T06:07:33.643Z,20.11
2023-05-14T06:09:59.313Z,20.11
2023-05-14T06:12:25.087Z,20.12
2023-05-14T06:14:50.754Z,20.11
2023-05-14T06:17:16.648Z,20.11
2023-05-14T06:19:42.305Z,20.10
2023-05-14T06:22:07.952Z,20.10
2023-05-14T06:24:34.352Z,20.12
2023-05-14T06:27:00.050Z,20.10
2023-05-14T06:29:25.734Z,20.11
2023-05-14T06:31:51.609Z,20.10
2023-05-14T06:34:17.314Z,20.11
2023-05-14T06:36:42.945Z,20.11
2023-05-14T06:39:09.079Z,20.10
2023-05-14T06:41:34.742Z,20.11
2023-05-14T06:44:00.395Z,20.11
2023-05-14T06:46:26.070Z,20.11
2023-05-14T06:48:51.727Z,20.12
2023-05-14T06:51:17.426Z,20.12
2023-05-14T06:53:43.077Z,20.11
2023-05-14T06:56:08.734Z,20.11
2023-05-14T06:58:34.403Z,20.10
2023-05-14T07:01:00.181Z,20.10
2023-05-14T07:03:25.924Z,20.10
2023-05-14T07:05:51.563Z,20.10
2023-05-14T07:08:17.219Z,20.11
2023-05-14T07:10:42.865Z,20.11
2023-05-14T07:13:08.706Z,20.10
2023-05-14T07:15:34.383Z,20.11
2023-05-14T07:18:00.147Z,20.12
2023-05-14T07:20:26.287Z,20.10
2023-05-14T07:22:52.291Z,20.12
2023-05-14T07:25:17.939Z,20.11
2023-05-14T07:27:43.597Z,20.11
2023-05-14T07:30:09.534Z,20.10
2023-05-14T07:32:35.208Z,20.11
2023-05-14T07:35:00.927Z,20.11
2023-05-14T07:37:26.586Z,20.10
2023-05-14T07:39:52.650Z,20.10
2023-05-14T07:42:31.729Z,20.10
2023-05-14T07:44:57.849Z,20.09
2023-05-14T07:47:23.603Z,20.12
2023-05-14T07:49:53.611Z,20.12
2023-05-14T07:52:19.271Z,20.10
2023-05-14T07:54:44.903Z,20.11
2023-05-14T07:57:10.574Z,20.10
2023-05-14T07:59:36.216Z,20.11
2023-05-14T08:02:01.938Z,20.10
2023-05-14T08:04:27.691Z,20.10
2023-05-14T08:06:54.588Z,20.11
2023-05-14T08:09:20.221Z,20.11
2023-05-14T08:11:45.879Z,20.11
2023-05-14T08:14:11.515Z,20.11
2023-05-14T08:16:37.995Z,20.11
2023-05-14T08:19:03.712Z,20.11
2023-05-14T08:21:29.383Z,20.11
2023-05-14T08:23:55.034Z,20.10
2023-05-14T08:26:21.084Z,20.10
2023-05-14T08:28:46.711Z,20.10
2023-05-14T08:31:13.759Z,20.11
2023-05-14T08:33:39.641Z,20.12
2023-05-14T08:36:06.432Z,20.11
2023-05-14T08:38:32.568Z,20.10
2023-05-14T08:40:58.991Z,20.10
2023-05-14T08:43:26.975Z,20.10
2023-05-14T08:45:57.533Z,20.11
2023-05-14T08:48:25.999Z,20.12
2023-05-14T08:50:51.735Z,20.11
2023-05-14T08:53:17.431Z,20.11
2023-05-14T08:55:43.694Z,20.10
2023-05-14T08:58:09.480Z,20.11
2023-05-14T09:00:35.120Z,20.11
2023-05-14T09:03:01.203Z,20.11
2023-05-14T09:05:27.174Z,20.11
2023-05-14T09:07:52.844Z,20.10
2023-05-14T09:10:18.515Z,20.10
2023-05-14T09:12:44.159Z,20.10
2023-05-14T09:15:10.173Z,20.11
2023-05-14T09:17:35.888Z,20.11
2023-05-14T09:20:01.742Z,20.10
2023-05-14T09:22:31.013Z,20.11
2023-05-14T09:25:12.333Z,20.11
2023-05-14T09:27:38.426Z,20.10
2023-05-14T09:30:07.358Z,20.10
2023-05-14T09:32:49.668Z,20.09
2023-05-14T09:35:21.522Z,20.09
2023-05-14T09:37:49.802Z,20.10
2023-05-14T09:40:16.400Z,20.08
2023-05-14T09:42:42.061Z,20.09
2023-05-14T09:45:08.899Z,20.10
2023-05-14T09:47:35.518Z,20.12
2023-05-14T09:50:01.472Z,20.11
2023-05-14T09:52:27.245Z,20.11
2023-05-14T09:54:53.020Z,20.11
2023-05-14T09:57:19.538Z,20.11
2023-05-14T09:59:45.270Z,20.11
2023-05-14T10:02:16.353Z,20.10
2023-05-14T10:04:42.731Z,20.10
2023-05-14T10:07:08.783Z,20.11
2023-05-14T10:09:35.293Z,20.10
2023-05-14T10:12:01.172Z,20.09
2023-05-14T10:14:32.981Z,20.09
2023-05-14T10:17:00.976Z,20.10
2023-05-14T10:19:27.232Z,20.09
2023-05-14T10:21:56.168Z,20.08
2023-05-14T10:24:22.201Z,20.11
2023-05-14T10:26:48.143Z,20.10
2023-05-14T10:29:13.837Z,20.11
2023-05-14T10:31:54.673Z,20.11
2023-05-14T10:34:41.736Z,20.10
2023-05-14T10:37:10.445Z,20.10
2023-05-14T10:39:49.552Z,20.09
2023-05-14T10:42:20.073Z,20.09
2023-05-14T10:44:54.574Z,20.10
2023-05-14T10:47:20.635Z,20.11
2023-05-14T10:49:51.146Z,20.10
2023-05-14T10:52:18.640Z,20.11
2023-05-14T10:54:54.249Z,20.10
2023-05-14T10:57:21.803Z,20.10
2023-05-14T10:59:49.248Z,20.10
2023-05-14T11:02:20.708Z,20.10
2023-05-14T11:05:08.401Z,20.11
2023-05-14T11:07:37.151Z,20.11
2023-05-14T11:10:04.826Z,20.10
2023-05-14T11:12:31.205Z,20.10
2023-05-14T11:14:58.345Z,20.09
2023-05-14T11:17:25.588Z,20.10
2023-05-14T11:19:51.370Z,20.10
2023-05-14T11:22:17.062Z,20.10
2023-05-14T11:24:42.716Z,20.11
2023-05-14T11:27:08.705Z,20.10
2023-05-14T11:29:35.878Z,20.10
2023-05-14T11:32:04.254Z,20.10
2023-05-14T11:34:30.027Z,20.11
2023-05-14T11:36:55.686Z,20.11
2023-05-14T11:39:21.335Z,20.11
2023-05-14T11:41:46.994Z,20.10
2023-05-14T11:44:12.818Z,20.10
2023-05-14T11:46:38.543Z,20.10
2023-05-14T11:49:04.638Z,20.10
2023-05-14T11:51:31.149Z,20.09
2023-05-14T11:53:58.101Z,20.11
2023-05-14T11:56:24.043Z,20.10
2023-05-14T11:58:55.407Z,20.09
2023-05-14T12:01:21.082Z,20.09
2023-05-14T12:03:46.826Z,20.09
2023-05-14T12:06:12.516Z,20.08
2023-05-14T12:08:38.208Z,20.08
2023-05-14T12:11:03.866Z,20.09
2023-05-14T12:13:30.555Z,20.10
2023-05-14T12:15:57.870Z,20.09
2023-05-14T12:18:25.480Z,20.09
2023-05-14T12:20:51.353Z,20.09
2023-05-14T12:23:24.896Z,20.09
2023-05-14T12:25:51.022Z,20.10
2023-05-14T12:28:17.220Z,20.10
2023-05-14T12:30:42.931Z,20.10
2023-05-14T12:33:09.076Z,20.10
2023-05-14T12:35:36.110Z,20.10
2023-05-14T12:38:02.601Z,20.10
2023-05-14T12:40:28.548Z,20.10
2023-05-14T12:42:56.621Z,20.10
2023-05-14T12:45:22.671Z,20.10
2023-05-14T12:47:48.438Z,20.09
2023-05-14T12:50:14.130Z,20.09
2023-05-14T12:52:40.196Z,20.10
2023-05-14T12:55:07.293Z,20.10
2023-05-14T12:57:34.320Z,20.10
2023-05-14T13:00:00.416Z,20.09
2023-05-14T13:02:26.059Z,20.09
2023-05-14T13:04:51.717Z,20.10
2023-05-14T13:07:17.628Z,20.10
2023-05-14T13:09:43.288Z,20.09
2023-05-14T13:12:09.021Z,20.09
2023-05-14T13:14:35.557Z,20.09
2023-05-14T13:17:01.801Z,20.10
2023-05-14T13:19:27.461Z,20.09
2023-05-14T13:21:53.102Z,20.08
2023-05-14T13:24:18.748Z,20.09
2023-05-14T13:26:44.400Z,20.09
2023-05-14T13:29:10.460Z,20.10
2023-05-14T13:31:36.197Z,20.09
2023-05-14T13:34:01.993Z,20.07
2023-05-14T13:36:27.898Z,20.08
2023-05-14T13:38:53.555Z,20.09
2023-05-14T13:41:19.207Z,20.10
2023-05-14T13:43:44.892Z,20.10
2023-05-14T13:46:10.586Z,20.10
2023-05-14T13:48:36.545Z,20.09
2023-05-14T13:51:02.412Z,20.10
2023-05-14T13:53:28.213Z,20.10
2023-05-14T13:55:57.679Z,20.10
2023-05-14T13:58:24.677Z,20.10
2023-05-14T14:00:51.132Z,20.09
2023-05-14T14:03:16.818Z,20.09
2023-05-14T14:05:42.574Z,20.09
2023-05-14T14:08:22.766Z,20.09
2023-05-14T14:10:50.048Z,20.10
2023-05-14T14:13:15.773Z,20.08
2023-05-14T14:15:42.665Z,20.11
2023-05-14T14:18:08.312Z,20.10
2023-05-14T14:20:34.197Z,20.09
2023-05-14T14:22:59.927Z,20.10
2023-05-14T14:25:25.643Z,20.09
2023-05-14T14:27:51.484Z,20.09
2023-05-14T14:30:17.142Z,20.09
2023-05-14T14:32:44.197Z,20.10
2023-05-14T14:35:11.044Z,20.10
2023-05-14T14:37:36.692Z,20.10
2023-05-14T14:40:03.046Z,20.10
2023-05-14T14:42:28.820Z,20.10
2023-05-14T14:44:54.446Z,20.10
2023-05-14T14:47:20.090Z,20.09
2023-05-14T14:49:45.727Z,20.10
2023-05-14T14:52:11.393Z,20.10
2023-05-14T14:54:37.028Z,20.10
2023-05-14T14:57:02.737Z,20.10
2023-05-14T14:59:28.369Z,20.09
2023-05-14T15:01:54.310Z,20.10
2023-05-14T15:04:19.965Z,20.09
2023-05-14T15:06:45.610Z,20.09
2023-05-14T15:09:11.243Z,20.09
2023-05-14T15:11:37.558Z,20.10
2023-05-14T15:14:03.428Z,20.09
2023-05-14T15:16:29.118Z,20.11
2023-05-14T15:18:54.856Z,20.10
2023-05-14T15:21:20.629Z,20.10
2023-05-14T15:23:46.283Z,20.09
2023-05-14T15:26:11.953Z,20.10
2023-05-14T15:28:37.601Z,20.09
2023-05-14T15:31:03.382Z,20.10
2023-05-14T15:33:29.067Z,20.11
2023-05-14T15:35:54.704Z,20.12
2023-05-14T15:38:20.348Z,20.10
2023-05-14T15:40:45.976Z,20.11
2023-05-14T15:43:11.705Z,20.10
2023-05-14T15:45:37.352Z,20.10
2023-05-14T15:48:03.089Z,20.10
2023-05-14T15:50:28.745Z,20.11
2023-05-14T15:52:54.423Z,20.09
2023-05-14T15:55:20.202Z,20.11
2023-05-14T15:57:45.871Z,20.10
2023-05-14T16:00:11.905Z,20.11
2023-05-14T16:02:38.289Z,20.10
2023-05-14T16:05:04.790Z,20.12
2023-05-14T16:07:30.459Z,20.11
2023-05-14T16:09:56.124Z,20.10
2023-05-14T16:12:21.758Z,20.10
2023-05-14T16:14:47.433Z,20.10
2023-05-14T16:17:13.084Z,20.10
2023-05-14T16:19:38.966Z,20.10
2023-05-14T16:22:04.626Z,20.10
2023-05-14T16:24:30.276Z,20.10
2023-05-14T16:26:56.182Z,20.11
2023-05-14T16:29:21.970Z,20.11
2023-05-14T16:31:47.614Z,20.11
2023-05-14T16:34:13.350Z,20.11
2023-05-14T16:36:39.047Z,20.10
2023-05-14T16:39:07.795Z,20.11
2023-05-14T16:41:34.947Z,20.11
2023-05-14T16:44:00.606Z,20.11
2023-05-14T16:46:28.303Z,20.11
2023-05-14T16:48:54.344Z,20.11
2023-05-14T16:51:19.994Z,20.11
2023-05-14T16:53:45.762Z,20.11
2023-05-14T16:56:11.462Z,20.11
2023-05-14T16:58:37.242Z,20.11
2023-05-14T17:01:02.958Z,20.11
2023-05-14T17:03:28.657Z,20.11
2023-05-14T17:05:54.302Z,20.10
2023-05-14T17:08:20.185Z,20.10
2023-05-14T17:10:45.835Z,20.11
2023-05-14T17:13:11.478Z,20.11
2023-05-14T17:15:38.293Z,20.12
2023-05-14T17:18:04.009Z,20.11
2023-05-14T17:20:30.225Z,20.11
2023-05-14T17:22:55.880Z,20.11
2023-05-14T17:25:23.248Z,20.12
2023-05-14T17:27:49.029Z,20.11
2023-05-14T17:30:14.757Z,20.11
2023-05-14T17:32:40.424Z,20.10
2023-05-14T17:35:07.015Z,20.11
2023-05-14T17:37:32.666Z,20.11
2023-05-14T17:39:58.370Z,20.11
2023-05-14T17:42:24.042Z,20.11
2023-05-14T17:44:49.712Z,20.11
2023-05-14T17:47:15.392Z,20.12
2023-05-14T17:49:41.050Z,20.12
2023-05-14T17:52:06.702Z,20.12
2023-05-14T17:54:32.343Z,20.11
2023-05-14T17:56:57.997Z,20.12
2023-05-14T17:59:24.395Z,20.11
2023-05-14T18:01:50.227Z,20.12
2023-05-14T18:04:15.930Z,20.11
2023-05-14T18:06:41.583Z,20.11
2023-05-14T18:09:07.260Z,20.11
2023-05-14T18:11:33.235Z,20.12
2023-05-14T18:13:59.757Z,20.12
2023-05-14T18:16:25.715Z,20.12
2023-05-14T18:18:51.488Z,20.11
2023-05-14T18:21:17.186Z,20.12
2023-05-14T18:23:42.828Z,20.12
2023-05-14T18:26:08.543Z,20.12
2023-05-14T18:28:34.243Z,20.11
2023-05-14T18:30:59.936Z,20.11
2023-05-14T18:33:25.886Z,20.12
2023-05-14T18:35:52.643Z,20.11
2023-05-14T18:38:18.999Z,20.11
2023-05-14T18:40:45.436Z,20.12
2023-05-14T18:43:12.527Z,20.12
2023-05-14T18:45:38.993Z,20.11
2023-05-14T18:48:05.225Z,20.11
2023-05-14T18:50:30.973Z,20.10
2023-05-14T18:52:56.625Z,20.10
2023-05-14T18:55:22.405Z,20.11
2023-05-14T18:57:48.320Z,20.12
2023-05-14T19:00:14.347Z,20.12
2023-05-14T19:02:40.575Z,20.12
2023-05-14T19:05:07.146Z,20.12
2023-05-14T19:07:32.795Z,20.11
2023-05-14T19:09:58.445Z,20.11
2023-05-14T19:12:24.119Z,20.10
2023-05-14T19:14:49.770Z,20.10
2023-05-14T19:17:15.838Z,20.12
2023-05-14T19:19:42.397Z,20.10
2023-05-14T19:22:08.044Z,20.11
2023-05-14T19:24:33.705Z,20.11
2023-05-14T19:26:59.359Z,20.11
2023-05-14T19:29:24.998Z,20.12
2023-05-14T19:31:50.720Z,20.11
2023-05-14T19:34:16.386Z,20.11
2023-05-14T19:36:42.055Z,20.12
2023-05-14T19:39:07.699Z,20.12
2023-05-14T19:41:33.357Z,20.10
2023-05-14T19:43:59.013Z,20.11
2023-05-14T19:46:24.740Z,20.11
2023-05-14T19:48:50.381Z,20.11
2023-05-14T19:51:16.047Z,20.11
2023-05-14T19:53:41.703Z,20.11
2023-05-14T19:56:07.370Z,20.10
2023-05-14T19:58:33.022Z,20.11
2023-05-14T20:00:59.917Z,20.11
2023-05-14T20:03:25.611Z,20.10
2023-05-14T20:05:52.518Z,20.11
2023-05-14T20:08:19.915Z,20.10
2023-05-14T20:10:46.605Z,20.10
2023-05-14T20:13:12.334Z,20.11
2023-05-14T20:15:38.668Z,20.11
2023-05-14T20:18:04.376Z,20.10
2023-05-14T20:20:32.995Z,20.11
2023-05-14T20:22:59.302Z,20.12
2023-05-14T20:25:27.331Z,20.11
2023-05-14T20:27:53.935Z,20.10
2023-05-14T20:30:19.567Z,20.12
2023-05-14T20:32:45.499Z,20.11
2023-05-14T20:35:11.262Z,20.11
2023-05-14T20:37:37.115Z,20.11
2023-05-14T20:40:04.113Z,20.10
2023-05-14T20:42:29.790Z,20.11
2023-05-14T20:44:55.474Z,20.10
2023-05-14T20:47:25.653Z,20.11
2023-05-14T20:49:51.437Z,20.10
2023-05-14T20:52:17.600Z,20.10
2023-05-14T20:54:43.569Z,20.10
2023-05-14T20:57:10.979Z,20.11
2023-05-14T20:59:36.645Z,20.11
2023-05-14T21:02:02.355Z,20.11
2023-05-14T21:04:28.194Z,20.11
2023-05-14T21:06:53.975Z,20.11
2023-05-14T21:09:22.380Z,20.12
2023-05-14T21:11:47.933Z,20.12
2023-05-14T21:14:13.712Z,20.10
2023-05-14T21:16:39.438Z,20.10
2023-05-14T21:19:05.201Z,20.12
2023-05-14T21:21:30.888Z,20.10
2023-05-14T21:23:56.539Z,20.11
2023-05-14T21:26:22.247Z,20.11
2023-05-14T21:28:48.225Z,20.10
2023-05-14T21:31:13.881Z,20.10
2023-05-14T21:33:40.546Z,20.12
2023-05-14T21:36:07.409Z,20.11
2023-05-14T21:38:33.438Z,20.10
2023-05-14T21:40:59.093Z,20.10
2023-05-14T21:43:25.132Z,20.11
2023-05-14T21:45:50.874Z,20.11
2023-05-14T21:48:16.656Z,20.11
2023-05-14T21:50:42.341Z,20.11
2023-05-14T21:53:08.026Z,20.11
2023-05-14T21:55:33.989Z,20.12
2023-05-14T21:57:59.666Z,20.10
2023-05-14T22:00:25.330Z,20.12
2023-05-14T22:02:52.528Z,20.11
2023-05-14T22:05:18.731Z,20.11
2023-05-14T22:07:44.543Z,20.11
2023-05-14T22:10:12.011Z,20.12
2023-05-14T22:12:37.673Z,20.11
2023-05-14T22:15:04.705Z,20.10
2023-05-14T22:17:30.404Z,20.09
2023-05-14T22:19:56.091Z,20.11
2023-05-14T22:22:21.729Z,20.12
2023-05-14T22:24:47.384Z,20.12
2023-05-14T22:27:13.030Z,20.11
2023-05-14T22:29:38.679Z,20.11
2023-05-14T22:32:06.705Z,20.11
2023-05-14T22:34:32.354Z,20.12
2023-05-14T22:36:58.014Z,20.11
2023-05-14T22:39:23.662Z,20.12
2023-05-14T22:41:54.018Z,20.10
2023-05-14T22:44:20.555Z,20.12
2023-05-14T22:46:46.361Z,20.12
2023-05-14T22:49:12.025Z,20.11
2023-05-14T22:51:37.914Z,20.12
2023-05-14T22:54:03.740Z,20.11
2023-05-14T22:56:29.976Z,20.11
2023-05-14T22:58:59.407Z,20.11
2023-05-14T23:01:25.955Z,20.11
2023-05-14T23:03:51.642Z,20.11
2023-05-14T23:06:17.598Z,20.11
2023-05-14T23:08:43.257Z,20.10
2023-05-14T23:11:09.133Z,20.11
2023-05-14T23:13:34.796Z,20.12
2023-05-14T23:16:00.745Z,20.12
2023-05-14T23:18:26.540Z,20.12
2023-05-14T23:20:52.358Z,20.11
2023-05-14T23:23:18.006Z,20.11
2023-05-14T23:25:43.667Z,20.10
2023-05-14T23:28:09.522Z,20.11
2023-05-14T23:30:35.186Z,20.11
2023-05-14T23:33:00.880Z,20.12
2023-05-14T23:35:26.777Z,20.11
2023-05-14T23:37:54.337Z,20.11
2023-05-14T23:40:20.023Z,20.11
2023-05-14T23:42:45.801Z,20.12
2023-05-14T23:45:12.255Z,20.12
2023-05-14T23:47:38.304Z,20.11
2023-05-14T23:50:04.288Z,20.12
2023-05-14T23:52:29.931Z,20.11
2023-05-14T23:54:55.573Z,20.11
2023-05-14T23:57:21.329Z,20.11
2023-05-14T23:59:46.984Z,20.11
